Anoka, Minnesota
Current Conditions -  °F | °C
As of 10:34 PM on Wednesday 28 Jan 2015 (Local Time) from KANE Reporting Station
Haze Haze  
Wind Chill: -4°   Ceiling: 400
Heat Index: -1°   Visibility: 1.5mi
Dew Point: -1°   Wind: 6mph
Humidity: 100%   Direction: 330°NNW
Pressure: 29.85"   Gusts: NA
Location:  45.2°N, 93.39°W
Report Text: KANE 290434Z AUTO 33005KT 1 1/2SM BR OVC004 M01/M01 A2985 RMK AO2
Loading
Personal Weather Stations






























Interactive Weather Map New forecast layout! Learn more

10-Day Weather Forecast

Advertisements
Track Severe Weather on mobile